createdAt,value
2022-12-01T00:03:35.008Z,87.96
2022-12-01T00:07:37.715Z,88.05
2022-12-01T00:11:40.376Z,88.15
2022-12-01T00:15:43.018Z,88.31
2022-12-01T00:19:47.310Z,88.33
2022-12-01T00:23:52.478Z,88.11
2022-12-01T00:27:55.473Z,88.02
2022-12-01T00:31:58.713Z,88.12
2022-12-01T00:36:03.444Z,88.10
2022-12-01T00:40:08.066Z,87.89
2022-12-01T00:44:10.857Z,88.00
2022-12-01T00:48:13.634Z,88.06
2022-12-01T00:52:18.153Z,88.05
2022-12-01T00:56:21.330Z,87.96
2022-12-01T01:00:23.986Z,88.01
2022-12-01T01:04:26.677Z,87.88
2022-12-01T01:08:30.721Z,87.91
2022-12-01T01:12:33.396Z,88.03
2022-12-01T01:16:36.288Z,87.84
2022-12-01T01:20:39.027Z,87.90
2022-12-01T01:24:43.014Z,88.04
2022-12-01T01:28:46.010Z,88.00
2022-12-01T01:32:48.680Z,88.20
2022-12-01T01:36:51.447Z,88.28
2022-12-01T01:40:55.821Z,88.39
2022-12-01T01:44:59.978Z,88.40
2022-12-01T01:49:07.941Z,88.68
2022-12-01T01:53:15.385Z,88.57
2022-12-01T01:57:24.873Z,88.80
2022-12-01T02:01:27.630Z,88.89
2022-12-01T02:05:33.390Z,88.95
2022-12-01T02:09:36.624Z,89.03
2022-12-01T02:13:51.293Z,89.09
2022-12-01T02:18:07.239Z,89.37
2022-12-01T02:22:24.791Z,89.25
2022-12-01T02:26:40.394Z,89.32
2022-12-01T02:30:48.790Z,89.66
2022-12-01T02:34:58.718Z,89.78
2022-12-01T02:39:08.843Z,89.85
2022-12-01T02:43:17.231Z,89.91
2022-12-01T02:47:21.855Z,89.90
2022-12-01T02:51:29.089Z,90.09
2022-12-01T02:55:31.796Z,90.14
2022-12-01T02:59:34.433Z,90.25
2022-12-01T03:03:58.528Z,90.41
2022-12-01T03:08:07.420Z,90.67
2022-12-01T03:12:20.917Z,90.62
2022-12-01T03:16:32.832Z,90.84
2022-12-01T03:20:41.399Z,90.93
2022-12-01T03:24:48.393Z,91.11
2022-12-01T03:28:55.999Z,91.44
2022-12-01T03:33:05.021Z,91.41
2022-12-01T03:37:14.645Z,91.79
2022-12-01T03:41:21.130Z,91.82
2022-12-01T03:45:31.425Z,91.60
2022-12-01T03:49:35.213Z,91.59
2022-12-01T03:53:49.874Z,91.49
2022-12-01T03:57:57.497Z,91.27
2022-12-01T04:02:00.255Z,91.62
2022-12-01T04:06:03.086Z,91.67
2022-12-01T04:10:08.961Z,91.48
2022-12-01T04:14:11.662Z,91.60
2022-12-01T04:18:14.392Z,91.60
2022-12-01T04:22:17.098Z,91.44
2022-12-01T04:26:21.177Z,91.17
2022-12-01T04:30:23.892Z,91.44
2022-12-01T04:34:26.552Z,91.64
2022-12-01T04:38:30.985Z,91.95
2022-12-01T04:42:35.193Z,91.70
2022-12-01T04:46:37.976Z,91.95
2022-12-01T04:50:42.044Z,91.66
2022-12-01T04:54:44.751Z,91.72
2022-12-01T04:58:48.989Z,91.90
2022-12-01T05:02:51.718Z,91.58
2022-12-01T05:06:55.594Z,91.44
2022-12-01T05:10:58.900Z,91.79
2022-12-01T05:15:03.022Z,91.80
2022-12-01T05:19:24.351Z,91.90
2022-12-01T05:23:28.659Z,91.98
2022-12-01T05:27:31.374Z,92.01
2022-12-01T05:31:35.793Z,91.79
2022-12-01T05:35:38.516Z,92.08
2022-12-01T05:39:41.257Z,92.13
2022-12-01T05:43:43.991Z,92.19
2022-12-01T05:47:48.662Z,92.15
2022-12-01T05:51:51.539Z,92.47
2022-12-01T05:55:54.820Z,92.27
2022-12-01T05:59:57.532Z,92.20
2022-12-01T06:04:01.583Z,92.21
2022-12-01T06:08:04.359Z,92.25
2022-12-01T06:12:07.368Z,92.10
2022-12-01T06:16:10.148Z,91.89
2022-12-01T06:20:14.727Z,92.15
2022-12-01T06:24:17.427Z,92.15
2022-12-01T06:28:20.253Z,91.63
2022-12-01T06:32:22.929Z,91.90
2022-12-01T06:36:27.007Z,91.85
2022-12-01T06:40:29.712Z,91.53
2022-12-01T06:44:33.205Z,91.78
2022-12-01T06:48:36.042Z,91.49
2022-12-01T06:52:40.069Z,91.47
2022-12-01T06:56:43.217Z,91.67
2022-12-01T07:00:51.743Z,91.56
2022-12-01T07:04:54.913Z,91.64
2022-12-01T07:08:59.143Z,91.64
2022-12-01T07:13:01.880Z,91.57
2022-12-01T07:17:05.252Z,91.20
2022-12-01T07:21:12.660Z,91.12
2022-12-01T07:25:16.913Z,91.05
2022-12-01T07:29:19.747Z,91.00
2022-12-01T07:33:23.164Z,90.74
2022-12-01T07:37:26.142Z,90.62
2022-12-01T07:41:30.141Z,92.46
2022-12-01T07:45:32.786Z,95.00
2022-12-01T07:49:35.541Z,95.25
2022-12-01T07:53:39.254Z,91.80
2022-12-01T07:57:43.321Z,89.08
2022-12-01T08:01:46.350Z,88.37
2022-12-01T08:05:58.060Z,88.46
2022-12-01T08:10:00.785Z,88.32
2022-12-01T08:14:04.829Z,88.05
2022-12-01T08:18:08.149Z,88.69
2022-12-01T08:22:10.805Z,88.43
2022-12-01T08:26:16.140Z,87.87
2022-12-01T08:30:20.229Z,87.65
2022-12-01T08:34:22.926Z,87.18
2022-12-01T08:38:25.610Z,86.61
2022-12-01T08:42:28.400Z,85.14
2022-12-01T08:46:35.760Z,89.44
2022-12-01T08:50:38.577Z,84.07
2022-12-01T08:54:41.290Z,83.49
2022-12-01T08:58:43.997Z,83.20
2022-12-01T09:02:48.247Z,83.23
2022-12-01T09:06:52.714Z,83.78
2022-12-01T09:10:55.329Z,84.23
2022-12-01T09:14:58.063Z,83.92
2022-12-01T09:19:02.742Z,82.30
2022-12-01T09:23:05.363Z,81.89
2022-12-01T09:27:08.184Z,79.49
2022-12-01T09:31:13.320Z,80.98
2022-12-01T09:35:23.046Z,80.65
2022-12-01T09:39:26.453Z,79.49
2022-12-01T09:43:35.251Z,79.50
2022-12-01T09:47:40.069Z,78.92
2022-12-01T09:51:44.275Z,78.78
2022-12-01T09:55:47.438Z,78.71
2022-12-01T09:59:52.853Z,78.42
2022-12-01T10:03:58.953Z,78.15
2022-12-01T10:08:06.553Z,76.82
2022-12-01T10:12:15.137Z,76.97
2022-12-01T10:16:26.460Z,76.97
2022-12-01T10:20:37.050Z,78.20
2022-12-01T10:24:55.073Z,78.27
2022-12-01T10:29:12.983Z,78.42
2022-12-01T10:33:25.119Z,78.64
2022-12-01T10:37:31.069Z,79.85
2022-12-01T10:41:38.711Z,78.55
2022-12-01T10:45:44.999Z,79.16
2022-12-01T10:49:48.024Z,79.29
2022-12-01T10:53:52.352Z,78.85
2022-12-01T10:58:04.719Z,79.10
2022-12-01T11:02:17.296Z,84.04
2022-12-01T11:06:23.811Z,80.13
2022-12-01T11:10:28.690Z,79.34
2022-12-01T11:14:42.256Z,78.95
2022-12-01T11:18:45.010Z,79.04
2022-12-01T11:22:47.672Z,78.84
2022-12-01T11:26:50.397Z,79.69
2022-12-01T11:30:58.543Z,79.59
2022-12-01T11:35:04.504Z,79.33
2022-12-01T11:39:07.225Z,79.75
2022-12-01T11:43:25.675Z,79.13
2022-12-01T11:47:29.995Z,79.36
2022-12-01T11:51:37.452Z,79.77
2022-12-01T11:55:40.282Z,80.53
2022-12-01T11:59:42.937Z,80.32
2022-12-01T12:03:58.836Z,80.41
2022-12-01T12:08:10.987Z,80.29
2022-12-01T12:12:26.258Z,80.38
2022-12-01T12:16:39.029Z,85.02
2022-12-01T12:20:58.022Z,89.00
2022-12-01T12:25:20.814Z,85.95
2022-12-01T12:29:42.590Z,87.59
2022-12-01T12:34:05.735Z,79.18
2022-12-01T12:38:17.520Z,81.21
2022-12-01T12:42:32.567Z,78.17
2022-12-01T12:46:46.852Z,82.39
2022-12-01T12:50:57.505Z,79.83
2022-12-01T12:55:04.939Z,78.91
2022-12-01T12:59:13.024Z,79.79
2022-12-01T13:03:22.216Z,80.22
2022-12-01T13:07:35.557Z,80.49
2022-12-01T13:11:45.398Z,80.17
2022-12-01T13:15:50.177Z,81.51
2022-12-01T13:19:52.922Z,81.15
2022-12-01T13:23:55.837Z,80.93
2022-12-01T13:28:04.000Z,80.27
2022-12-01T13:32:08.423Z,80.25
2022-12-01T13:36:45.336Z,80.83
2022-12-01T13:40:36.790Z,81.11
2022-12-01T13:44:43.066Z,81.15
2022-12-01T13:48:53.678Z,81.11
2022-12-01T13:53:12.150Z,81.49
2022-12-01T13:57:26.779Z,81.07
2022-12-01T14:01:49.033Z,81.51
2022-12-01T14:05:57.107Z,80.96
2022-12-01T14:10:30.090Z,81.21
2022-12-01T14:14:38.462Z,80.76
2022-12-01T14:18:45.233Z,81.03
2022-12-01T14:22:50.953Z,81.45
2022-12-01T14:26:54.015Z,81.58
2022-12-01T14:31:03.864Z,80.89
2022-12-01T14:35:14.895Z,81.16
2022-12-01T14:39:21.717Z,80.36
2022-12-01T14:43:44.473Z,80.58
2022-12-01T14:47:53.690Z,80.39
2022-12-01T14:52:05.414Z,79.45
2022-12-01T14:56:12.305Z,79.68
2022-12-01T15:00:17.949Z,79.60
2022-12-01T15:04:20.919Z,80.05
2022-12-01T15:08:53.194Z,79.85
2022-12-01T15:12:51.962Z,79.78
2022-12-01T15:16:54.757Z,79.36
2022-12-01T17:26:21.852Z,83.65
2022-12-01T17:30:25.279Z,83.18
2022-12-01T17:34:28.308Z,82.66
2022-12-01T17:38:31.154Z,82.75
2022-12-01T17:42:35.540Z,82.89
2022-12-01T17:46:38.476Z,82.80
2022-12-01T17:50:41.628Z,82.95
2022-12-01T17:54:44.426Z,83.12
2022-12-01T17:58:50.547Z,83.49
2022-12-01T18:02:53.463Z,83.69
2022-12-01T18:06:56.269Z,83.74
2022-12-01T18:11:02.153Z,83.67
2022-12-01T18:15:08.166Z,84.20
2022-12-01T18:19:11.654Z,84.00
2022-12-01T18:23:14.407Z,84.23
2022-12-01T18:27:17.218Z,84.27
2022-12-01T18:31:21.659Z,84.22
2022-12-01T18:35:28.822Z,84.11
2022-12-01T18:39:34.904Z,84.52
2022-12-01T18:43:38.196Z,84.54
2022-12-01T18:47:42.354Z,84.40
2022-12-01T18:51:45.059Z,84.49
2022-12-01T18:55:47.733Z,84.73
2022-12-01T18:59:51.094Z,84.64
2022-12-01T19:03:57.792Z,84.46
2022-12-01T19:08:00.728Z,84.47
2022-12-01T19:12:03.458Z,85.01
2022-12-01T19:16:07.771Z,84.44
2022-12-01T19:20:13.396Z,84.00
2022-12-01T19:24:16.483Z,83.70
2022-12-01T19:28:19.225Z,83.75
2022-12-01T19:32:22.247Z,83.84
2022-12-01T19:36:28.292Z,83.89
2022-12-01T19:40:30.989Z,83.67
2022-12-01T19:44:33.704Z,83.91
2022-12-01T19:48:36.866Z,83.60
2022-12-01T19:52:41.736Z,84.19
2022-12-01T19:56:45.005Z,84.06
2022-12-01T20:00:47.995Z,84.45
2022-12-01T20:04:51.153Z,84.06
2022-12-01T20:08:56.635Z,84.42
2022-12-01T20:12:59.322Z,84.62
2022-12-01T20:17:02.305Z,85.13
2022-12-01T20:21:07.450Z,85.44
2022-12-01T20:25:11.620Z,85.29
2022-12-01T20:29:17.007Z,85.65
2022-12-01T20:33:19.697Z,85.75
2022-12-01T20:37:22.605Z,85.79
2022-12-01T20:41:26.645Z,86.15
2022-12-01T20:45:29.550Z,87.10
2022-12-01T20:49:32.970Z,86.89
2022-12-01T20:53:36.675Z,87.37
2022-12-01T20:57:40.743Z,87.51
2022-12-01T21:01:43.723Z,87.87
2022-12-01T21:05:46.418Z,88.25
2022-12-01T21:09:49.344Z,88.34
2022-12-01T21:13:54.031Z,88.51
2022-12-01T21:18:00.137Z,88.72
2022-12-01T21:22:03.021Z,88.72
2022-12-01T21:26:10.612Z,88.69
2022-12-01T21:30:21.957Z,88.78
2022-12-01T21:34:25.966Z,88.81
2022-12-01T21:38:28.985Z,88.89
2022-12-01T21:42:32.809Z,88.82
2022-12-01T21:46:39.716Z,88.73
2022-12-01T21:50:42.550Z,88.58
2022-12-01T21:54:45.397Z,88.65
2022-12-01T21:58:48.940Z,88.74
2022-12-01T22:02:59.502Z,89.16
2022-12-01T22:07:03.343Z,89.01
2022-12-01T22:11:11.671Z,88.94
2022-12-01T22:15:40.838Z,89.32
2022-12-01T22:19:47.885Z,89.41
2022-12-01T22:23:52.810Z,89.41
2022-12-01T22:27:58.170Z,89.24
2022-12-01T22:32:27.616Z,89.10
2022-12-01T22:36:33.343Z,89.22
2022-12-01T22:40:39.546Z,89.22
2022-12-01T22:44:44.968Z,89.33
2022-12-01T22:48:50.067Z,89.16
2022-12-01T22:52:55.037Z,89.52
2022-12-01T22:57:25.485Z,89.34
2022-12-01T23:01:30.363Z,89.10
2022-12-01T23:05:33.065Z,89.56
2022-12-01T23:09:42.899Z,89.74
2022-12-01T23:13:45.644Z,89.59
2022-12-01T23:17:48.787Z,89.55
2022-12-01T23:21:53.538Z,89.61
2022-12-01T23:25:57.865Z,89.65
2022-12-01T23:30:00.533Z,89.54
2022-12-01T23:34:03.156Z,89.47
2022-12-01T23:38:06.829Z,89.54
2022-12-01T23:42:13.784Z,89.45
2022-12-01T23:46:19.407Z,89.92
2022-12-01T23:50:24.369Z,89.55
2022-12-01T23:54:30.188Z,89.37
2022-12-01T23:58:35.121Z,89.54
